Time;durP1;ratioP1;P1;durP2;ratioP2;P2;SDS_P1;SDS_P2;PMS_P1;PMS_P2;Temp;Humidity;BMP_temperature;BMP_pressure;BME280_temperature;BME280_humidity;BME280_pressure;Samples;Min_cycle;Max_cycle;Signal;HPM_P1;HPM_P2
2021/04/11 00:00:58;;;;;;;16.33;13.32;;;11.20;95.60;;;;;;5035342;28;20039;-82
2021/04/11 00:03:26;;;;;;;18.63;14.70;;;11.10;95.60;;;;;;5051431;28;20035;-81
2021/04/11 00:05:52;;;;;;;19.88;14.63;;;11.00;95.60;;;;;;5053525;28;20392;-81
2021/04/11 00:08:20;;;;;;;17.48;15.25;;;11.00;95.80;;;;;;5043546;28;20021;-81
2021/04/11 00:10:52;;;;;;;20.38;14.77;;;11.00;95.80;;;;;;5045547;28;20017;-82
2021/04/11 00:13:24;;;;;;;18.35;16.05;;;11.00;95.90;;;;;;5031872;28;20075;-81
2021/04/11 00:15:50;;;;;;;22.08;15.15;;;10.90;95.90;;;;;;5038424;28;20043;-82
2021/04/11 00:18:16;;;;;;;23.55;16.15;;;10.80;95.80;;;;;;5036301;28;20032;-82
2021/04/11 00:20:42;;;;;;;18.98;14.32;;;10.80;95.80;;;;;;5044725;28;20057;-82
2021/04/11 00:23:08;;;;;;;18.40;13.30;;;10.70;96.00;;;;;;5040159;28;20037;-82
2021/04/11 00:25:36;;;;;;;15.18;12.75;;;10.60;95.60;;;;;;5052352;28;20025;-83
2021/04/11 00:28:02;;;;;;;12.93;10.93;;;10.60;95.70;;;;;;5035298;28;20103;-83
2021/04/11 00:30:29;;;;;;;10.80;9.70;;;10.60;95.50;;;;;;5043762;28;20028;-83
2021/04/11 00:32:57;;;;;;;9.82;7.38;;;10.60;95.60;;;;;;5052568;28;20518;-82
2021/04/11 00:35:24;;;;;;;8.75;7.28;;;10.50;95.20;;;;;;5033319;28;20520;-83
2021/04/11 00:37:50;;;;;;;7.82;7.10;;;10.50;95.10;;;;;;5053736;28;20024;-82
2021/04/11 00:40:23;;;;;;;7.10;6.40;;;10.40;95.20;;;;;;5046758;28;20035;-83
2021/04/11 00:42:58;;;;;;;6.72;6.03;;;10.50;95.20;;;;;;5040261;28;20041;-82
2021/04/11 00:45:44;;;;;;;6.30;5.80;;;10.50;95.00;;;;;;5056518;28;20029;-82
2021/04/11 00:48:12;;;;;;;6.22;5.60;;;10.40;94.90;;;;;;5034664;28;20697;-83
2021/04/11 00:50:38;;;;;;;5.90;5.40;;;10.40;94.90;;;;;;5052439;28;20036;-81
2021/04/11 00:53:05;;;;;;;5.38;4.88;;;10.40;94.70;;;;;;5052252;28;20029;-82
2021/04/11 00:55:32;;;;;;;5.57;5.18;;;10.40;94.80;;;;;;5052563;28;20068;-83
2021/04/11 00:57:58;;;;;;;6.03;5.53;;;10.30;94.60;;;;;;5052721;28;20053;-82
2021/04/11 01:00:28;;;;;;;6.45;5.85;;;10.30;94.70;;;;;;5049034;28;20032;-83
2021/04/11 01:02:54;;;;;;;6.38;5.82;;;10.30;94.80;;;;;;5041981;28;20044;-82
2021/04/11 01:05:27;;;;;;;5.88;5.28;;;10.20;94.80;;;;;;5049251;28;20079;-83
2021/04/11 01:07:55;;;;;;;6.43;5.82;;;10.20;94.70;;;;;;5058282;28;20506;-82
2021/04/11 01:10:32;;;;;;;8.50;5.88;;;10.20;94.90;;;;;;5025187;28;20086;-82
2021/04/11 01:12:58;;;;;;;7.53;6.85;;;10.20;94.60;;;;;;5052404;28;20025;-82
2021/04/11 01:15:29;;;;;;;7.90;7.20;;;10.10;94.50;;;;;;5048764;28;20108;-81
2021/04/11 01:17:55;;;;;;;7.25;6.55;;;10.10;94.60;;;;;;5045664;28;20104;-81
2021/04/11 01:20:23;;;;;;;6.85;6.25;;;10.00;94.50;;;;;;5041254;28;20052;-81
2021/04/11 01:23:05;;;;;;;7.75;6.25;;;10.00;94.60;;;;;;5045878;28;20395;-82
2021/04/11 01:25:34;;;;;;;7.10;6.50;;;9.90;94.60;;;;;;5033887;28;20051;-83
2021/04/11 01:28:02;;;;;;;7.40;6.70;;;9.90;94.80;;;;;;5052419;28;20067;-81
2021/04/11 01:30:35;;;;;;;7.80;7.03;;;9.90;94.80;;;;;;5044977;28;20087;-81
2021/04/11 01:33:04;;;;;;;8.77;7.88;;;9.80;94.70;;;;;;5049385;28;20403;-83
2021/04/11 01:35:30;;;;;;;9.18;8.30;;;9.80;95.00;;;;;;5052070;28;20656;-83
2021/04/11 01:37:59;;;;;;;9.63;8.73;;;9.70;95.30;;;;;;5048551;28;20033;-82
2021/04/11 01:40:37;;;;;;;10.60;9.48;;;9.70;95.50;;;;;;5056513;28;20037;-83
2021/04/11 01:43:04;;;;;;;11.65;10.32;;;9.60;95.50;;;;;;5047735;28;20053;-82
2021/04/11 01:45:34;;;;;;;12.95;10.80;;;9.60;95.50;;;;;;5052182;28;20075;-82
2021/04/11 01:48:00;;;;;;;13.98;12.38;;;9.50;95.70;;;;;;5051717;28;20616;-82
2021/04/11 01:50:26;;;;;;;13.15;11.85;;;9.40;95.70;;;;;;5052165;28;20028;-82
2021/04/11 01:52:53;;;;;;;13.30;12.00;;;9.30;95.80;;;;;;5051634;28;20021;-82
2021/04/11 01:55:20;;;;;;;14.10;12.63;;;9.30;95.90;;;;;;5050202;28;20361;-82
2021/04/11 01:57:52;;;;;;;13.98;12.48;;;9.30;96.00;;;;;;5032943;28;20520;-81
2021/04/11 02:00:21;;;;;;;11.52;10.32;;;9.20;95.90;;;;;;5033837;28;20025;-81
2021/04/11 02:02:48;;;;;;;12.20;10.13;;;9.10;95.70;;;;;;5050812;28;20021;-81
2021/04/11 02:05:16;;;;;;;12.63;10.95;;;9.10;95.80;;;;;;5048879;28;20025;-82
2021/04/11 02:07:44;;;;;;;12.25;10.90;;;9.10;96.00;;;;;;5039180;28;20360;-82
2021/04/11 02:10:11;;;;;;;12.73;11.43;;;9.10;95.70;;;;;;5043163;28;20021;-80
2021/04/11 02:12:38;;;;;;;11.75;10.55;;;9.10;95.80;;;;;;5032124;28;20702;-81
2021/04/11 02:15:10;;;;;;;11.93;10.55;;;9.00;95.60;;;;;;5051745;28;20025;-81
2021/04/11 02:17:37;;;;;;;10.35;9.25;;;9.00;95.30;;;;;;5045210;28;20506;-81
2021/04/11 02:20:05;;;;;;;13.43;9.52;;;8.90;95.40;;;;;;5046652;28;20475;-81
2021/04/11 02:22:33;;;;;;;9.85;8.93;;;8.90;95.60;;;;;;5051246;28;20033;-81
2021/04/11 02:24:59;;;;;;;10.65;8.88;;;8.80;95.20;;;;;;5044664;28;20024;-80
2021/04/11 02:27:25;;;;;;;10.45;8.50;;;8.80;95.40;;;;;;5013282;28;20057;-81
2021/04/11 02:29:52;;;;;;;10.52;8.85;;;8.80;95.40;;;;;;5046818;28;20026;-81
2021/04/11 02:32:18;;;;;;;10.00;8.73;;;8.80;95.40;;;;;;5050914;28;20025;-81
2021/04/11 02:34:45;;;;;;;10.05;8.88;;;8.80;95.60;;;;;;5036916;28;20116;-80
2021/04/11 02:37:18;;;;;;;11.30;8.73;;;8.80;95.50;;;;;;5036452;28;20083;-80
2021/04/11 02:39:45;;;;;;;9.35;7.97;;;8.80;95.40;;;;;;5053991;28;20475;-81
2021/04/11 02:42:27;;;;;;;9.25;8.23;;;8.70;95.20;;;;;;5047454;28;20056;-81
2021/04/11 02:44:54;;;;;;;8.65;7.82;;;8.70;95.20;;;;;;5047684;28;20028;-81
2021/04/11 02:47:20;;;;;;;8.52;7.72;;;8.60;95.40;;;;;;5055136;28;20071;-80
2021/04/11 02:49:50;;;;;;;8.73;7.82;;;8.60;95.20;;;;;;5054990;28;20021;-80
2021/04/11 02:52:22;;;;;;;8.52;7.72;;;8.60;95.30;;;;;;5054387;28;20021;-80
2021/04/11 02:54:49;;;;;;;8.27;7.45;;;8.60;95.20;;;;;;5054289;28;20583;-80
2021/04/11 02:57:16;;;;;;;8.80;7.90;;;8.60;95.20;;;;;;5054727;28;20067;-81
2021/04/11 02:59:41;;;;;;;9.07;7.82;;;8.60;95.30;;;;;;5054871;28;20021;-80
2021/04/11 03:02:07;;;;;;;8.32;7.53;;;8.60;95.20;;;;;;5053939;28;20017;-80
2021/04/11 03:04:33;;;;;;;9.25;6.88;;;8.50;95.00;;;;;;5036567;28;20067;-80
2021/04/11 03:07:04;;;;;;;7.68;6.93;;;8.60;95.30;;;;;;5054189;28;20025;-80
2021/04/11 03:09:39;;;;;;;7.20;6.35;;;8.50;94.90;;;;;;5046740;28;20060;-80
2021/04/11 03:12:05;;;;;;;7.10;6.38;;;8.50;94.80;;;;;;5035393;28;20022;-80
2021/04/11 03:14:38;;;;;;;8.10;6.25;;;8.50;94.80;;;;;;5046724;28;20025;-80
2021/04/11 03:17:16;;;;;;;8.00;5.90;;;8.60;94.80;;;;;;5053927;28;20018;-80
2021/04/11 03:19:49;;;;;;;7.15;5.40;;;8.50;94.70;;;;;;5033619;28;20030;-80
2021/04/11 03:22:19;;;;;;;7.55;5.10;;;8.50;94.80;;;;;;5043121;28;20388;-80
2021/04/11 03:24:48;;;;;;;5.45;4.95;;;8.50;94.70;;;;;;5049758;28;20037;-79
2021/04/11 03:27:19;;;;;;;6.50;4.85;;;8.50;94.60;;;;;;5044584;28;20029;-80
2021/04/11 03:30:05;;;;;;;5.90;5.28;;;8.50;94.40;;;;;;5053156;28;20029;-80
2021/04/11 03:32:36;;;;;;;6.18;5.57;;;8.40;94.60;;;;;;5053415;28;20021;-80
2021/04/11 03:35:05;;;;;;;5.07;3.97;;;8.40;94.70;;;;;;5053686;28;20029;-79
2021/04/11 03:37:33;;;;;;;3.47;3.17;;;8.40;94.30;;;;;;5053837;28;20035;-80
2021/04/11 03:39:59;;;;;;;4.50;4.10;;;8.30;93.50;;;;;;5054825;28;20036;-80
2021/04/11 03:42:30;;;;;;;6.65;4.60;;;8.30;93.50;;;;;;5042528;28;20547;-79
2021/04/11 03:44:57;;;;;;;5.05;4.15;;;8.30;93.30;;;;;;5046559;28;20028;-79
2021/04/11 03:47:48;;;;;;;7.72;6.93;;;8.20;93.30;;;;;;5039104;28;20072;-80
2021/04/11 03:50:19;;;;;;;10.68;8.95;;;8.10;93.30;;;;;;5031260;28;20422;-79
2021/04/11 03:52:54;;;;;;;11.63;9.38;;;8.10;93.20;;;;;;5053474;28;20063;-79
2021/04/11 03:55:22;;;;;;;14.23;11.25;;;8.00;93.20;;;;;;5053183;28;20100;-80
2021/04/11 03:58:00;;;;;;;17.60;12.00;;;8.00;93.20;;;;;;5045216;28;20036;-79
2021/04/11 04:00:32;;;;;;;14.40;11.77;;;8.00;93.30;;;;;;5053385;28;20032;-80
2021/04/11 04:03:05;;;;;;;14.90;13.05;;;8.00;93.20;;;;;;5053495;28;20396;-80
2021/04/11 04:05:34;;;;;;;18.00;14.13;;;8.00;93.30;;;;;;5035529;28;20029;-78
2021/04/11 04:08:00;;;;;;;16.55;13.23;;;8.00;93.40;;;;;;5043382;28;20491;-80
2021/04/11 04:10:37;;;;;;;20.77;16.05;;;8.00;93.20;;;;;;5044491;28;20017;-80
2021/04/11 04:13:08;;;;;;;22.42;16.10;;;8.00;93.00;;;;;;5053318;28;20549;-80
2021/04/11 04:15:43;;;;;;;25.50;17.05;;;7.90;93.00;;;;;;5035773;28;20021;-80
2021/04/11 04:18:24;;;;;;;24.45;17.92;;;7.90;92.90;;;;;;5042164;28;20032;-80
2021/04/11 04:21:13;;;;;;;25.40;19.00;;;7.90;92.80;;;;;;5024549;28;20025;-79
2021/04/11 04:23:58;;;;;;;25.83;19.25;;;7.80;92.50;;;;;;5052077;28;20028;-80
2021/04/11 04:26:39;;;;;;;27.60;21.13;;;7.80;92.90;;;;;;5033733;28;20060;-80
2021/04/11 04:29:13;;;;;;;32.08;21.40;;;7.80;92.90;;;;;;5035215;28;20029;-80
2021/04/11 04:32:12;;;;;;;29.20;21.08;;;7.80;92.90;;;;;;5051578;28;20040;-80
2021/04/11 04:34:45;;;;;;;27.95;19.67;;;7.80;92.90;;;;;;5052728;28;20036;-79
2021/04/11 04:37:14;;;;;;;28.00;21.40;;;7.80;93.00;;;;;;5033698;28;20025;-80
2021/04/11 04:39:45;;;;;;;29.02;21.70;;;7.80;93.00;;;;;;5049010;28;20111;-80
2021/04/11 04:42:17;;;;;;;28.60;20.67;;;7.80;92.80;;;;;;5044404;28;20053;-80
2021/04/11 04:44:53;;;;;;;30.40;21.33;;;7.80;93.00;;;;;;5044049;28;20057;-80
2021/04/11 04:47:33;;;;;;;33.78;21.15;;;7.80;92.90;;;;;;5052401;28;20479;-79
2021/04/11 04:50:24;;;;;;;28.58;21.63;;;7.90;92.90;;;;;;5052943;28;20391;-78
2021/04/11 04:53:15;;;;;;;32.65;21.63;;;7.80;93.00;;;;;;5052356;28;20028;-78
2021/04/11 04:55:49;;;;;;;31.80;22.17;;;7.80;93.00;;;;;;5045955;28;20044;-79
2021/04/11 04:58:28;;;;;;;34.55;22.83;;;7.80;93.10;;;;;;5034523;28;20476;-79
2021/04/11 05:01:19;;;;;;;30.27;21.55;;;7.80;93.10;;;;;;5052081;28;20021;-78
2021/04/11 05:03:48;;;;;;;34.40;22.17;;;7.80;93.20;;;;;;5037948;28;20499;-80
2021/04/11 05:06:20;;;;;;;32.55;21.80;;;7.80;92.90;;;;;;5052396;28;20029;-80
2021/04/11 05:09:26;;;;;;;36.70;23.90;;;7.80;92.90;;;;;;5039793;28;20034;-79
2021/04/11 05:12:03;;;;;;;35.83;22.35;;;7.70;92.90;;;;;;5046894;28;20051;-78
2021/04/11 05:14:39;;;;;;;31.80;21.58;;;7.70;93.10;;;;;;5033864;28;20396;-79
2021/04/11 05:17:09;;;;;;;37.50;23.13;;;7.70;93.20;;;;;;5052148;28;20040;-81
2021/04/11 05:19:41;;;;;;;36.58;23.73;;;7.60;93.20;;;;;;5027915;28;20587;-78
2021/04/11 05:22:22;;;;;;;35.45;22.90;;;7.60;93.40;;;;;;5047607;28;20029;-79
2021/04/11 05:25:03;;;;;;;38.38;24.45;;;7.50;93.60;;;;;;5028199;28;20120;-80
2021/04/11 05:27:56;;;;;;;38.90;22.83;;;7.50;93.70;;;;;;5034226;28;20078;-78
2021/04/11 05:31:05;;;;;;;38.23;23.37;;;7.60;94.00;;;;;;5045166;28;20044;-80
2021/04/11 05:33:34;;;;;;;36.55;22.67;;;7.50;93.80;;;;;;5032429;28;20326;-81
2021/04/11 05:36:07;;;;;;;40.63;23.95;;;7.60;93.90;;;;;;5049487;28;20017;-78
2021/04/11 05:38:52;;;;;;;35.83;23.67;;;7.70;93.70;;;;;;5034954;28;20029;-78
2021/04/11 05:41:27;;;;;;;37.05;21.50;;;7.70;93.60;;;;;;5039623;28;20396;-81
2021/04/11 05:43:56;;;;;;;36.20;23.40;;;7.70;92.90;;;;;;5051091;28;20454;-81
2021/04/11 05:46:37;;;;;;;36.80;23.05;;;7.70;93.00;;;;;;5049686;28;20515;-79
2021/04/11 05:49:17;;;;;;;35.88;22.45;;;7.60;93.00;;;;;;5047975;28;20128;-78
2021/04/11 05:51:51;;;;;;;38.40;23.52;;;7.60;93.30;;;;;;5051707;28;20108;-79
2021/04/11 05:54:26;;;;;;;36.03;22.48;;;7.60;93.00;;;;;;5051668;28;20029;-80
2021/04/11 05:56:58;;;;;;;35.28;22.75;;;7.60;92.80;;;;;;5034107;28;20021;-79
2021/04/11 05:59:49;;;;;;;38.20;22.23;;;7.60;93.00;;;;;;5051618;28;20025;-81
2021/04/11 06:02:38;;;;;;;37.90;22.98;;;7.50;92.80;;;;;;5033377;28;20028;-79
2021/04/11 06:05:11;;;;;;;36.70;22.35;;;7.50;92.70;;;;;;5048152;28;20511;-80
2021/04/11 06:07:55;;;;;;;40.65;24.63;;;7.50;92.50;;;;;;5056839;28;20044;-81
2021/04/11 06:10:30;;;;;;;35.28;22.27;;;7.50;92.80;;;;;;5044806;28;20033;-81
2021/04/11 06:13:10;;;;;;;35.40;22.85;;;7.50;92.50;;;;;;5047843;28;20017;-81
2021/04/11 06:15:56;;;;;;;34.95;22.92;;;7.60;92.30;;;;;;5056640;28;20025;-78
2021/04/11 06:18:22;;;;;;;35.60;22.80;;;7.70;92.00;;;;;;5041014;28;20025;-80
2021/04/11 06:20:51;;;;;;;35.35;21.85;;;7.80;91.20;;;;;;5045826;28;20029;-78
2021/04/11 06:23:22;;;;;;;37.60;21.15;;;7.80;91.50;;;;;;5053517;28;20032;-80
2021/04/11 06:26:13;;;;;;;39.15;23.23;;;7.80;91.40;;;;;;5042818;28;20025;-81
2021/04/11 06:28:47;;;;;;;34.67;22.00;;;7.70;91.30;;;;;;5054160;28;20502;-79
2021/04/11 06:31:45;;;;;;;42.20;22.63;;;7.70;91.60;;;;;;5036224;28;20041;-80
2021/04/11 06:34:20;;;;;;;38.35;22.38;;;7.90;91.40;;;;;;5041339;28;20038;-80
2021/04/11 06:36:48;;;;;;;40.90;22.77;;;7.90;91.30;;;;;;5055170;28;20035;-81
2021/04/11 06:39:26;;;;;;;30.83;20.02;;;7.90;91.30;;;;;;5061890;28;20492;-80
2021/04/11 06:42:29;;;;;;;33.90;21.17;;;8.00;91.30;;;;;;5035666;28;20029;-79
2021/04/11 06:45:13;;;;;;;32.08;20.05;;;7.90;91.40;;;;;;5047424;28;20045;-81
2021/04/11 06:47:52;;;;;;;31.50;19.67;;;7.80;91.40;;;;;;5037110;28;20040;-78
2021/04/11 06:50:26;;;;;;;28.38;19.30;;;7.80;91.00;;;;;;5055073;28;20029;-80
2021/04/11 06:53:22;;;;;;;34.63;19.83;;;7.70;91.30;;;;;;5036328;28;20029;-79
2021/04/11 06:55:57;;;;;;;37.35;21.50;;;7.70;91.20;;;;;;5054566;28;20017;-79
2021/04/11 06:58:39;;;;;;;33.20;21.40;;;7.90;91.50;;;;;;5054841;28;20029;-80
2021/04/11 07:01:34;;;;;;;30.45;19.80;;;8.30;91.40;;;;;;5054222;28;20024;-79
2021/04/11 07:04:33;;;;;;;31.63;19.05;;;8.40;90.70;;;;;;5033417;28;20052;-81
2021/04/11 07:07:23;;;;;;;33.95;19.85;;;8.40;90.70;;;;;;5054246;28;20048;-78
2021/04/11 07:10:00;;;;;;;30.33;19.58;;;8.30;90.90;;;;;;5046717;28;20054;-80
2021/04/11 07:12:57;;;;;;;30.35;19.23;;;8.10;90.80;;;;;;5053309;28;20029;-78
2021/04/11 07:15:53;;;;;;;31.35;19.25;;;8.00;91.00;;;;;;5054538;28;20029;-81
2021/04/11 07:18:27;;;;;;;34.35;18.88;;;8.00;90.60;;;;;;5028319;28;20064;-80
2021/04/11 07:20:53;;;;;;;27.00;17.40;;;8.00;89.90;;;;;;5054519;28;20407;-81
2021/04/11 07:23:37;;;;;;;25.15;17.30;;;8.30;90.10;;;;;;5034370;28;20029;-80
2021/04/11 07:26:18;;;;;;;30.67;18.10;;;8.60;88.60;;;;;;5040023;28;20543;-81
2021/04/11 07:29:05;;;;;;;28.65;17.63;;;8.80;88.80;;;;;;5053864;28;20369;-79
2021/04/11 07:31:59;;;;;;;21.77;15.00;;;9.10;87.00;;;;;;5034990;28;20033;-78
2021/04/11 07:34:53;;;;;;;23.23;14.73;;;9.30;83.80;;;;;;5053658;28;20028;-78
2021/04/11 07:37:37;;;;;;;22.35;14.40;;;9.50;82.40;;;;;;5053723;28;20498;-80
2021/04/11 07:40:25;;;;;;;;;;;9.90;80.70;;;;;;5055719;28;20032;-78
2021/04/11 07:43:03;;;;;;;23.63;14.35;;;10.20;79.70;;;;;;5036871;28;19913;-81
2021/04/11 07:46:04;;;;;;;24.58;15.45;;;9.90;80.20;;;;;;5046518;28;20491;-79
2021/04/11 07:48:52;;;;;;;22.88;15.10;;;10.10;80.00;;;;;;5042701;28;20048;-79
2021/04/11 07:51:47;;;;;;;20.67;14.77;;;10.20;79.30;;;;;;5053883;28;20021;-81
2021/04/11 07:54:33;;;;;;;24.50;14.57;;;10.10;77.90;;;;;;5052560;28;20466;-80
2021/04/11 07:57:36;;;;;;;21.67;14.52;;;9.90;78.40;;;;;;5052239;28;20581;-81
2021/04/11 08:00:27;;;;;;;21.87;13.00;;;10.10;79.80;;;;;;5053722;28;20124;-79
2021/04/11 08:03:01;;;;;;;20.23;13.65;;;11.00;75.70;;;;;;5035435;28;20267;-78
2021/04/11 08:05:48;;;;;;;18.48;12.90;;;10.60;74.60;;;;;;5051118;28;20105;-80
2021/04/11 08:08:35;;;;;;;24.00;13.45;;;10.00;76.50;;;;;;5059153;28;20025;-79
2021/04/11 08:11:22;;;;;;;17.55;11.23;;;12.30;72.30;;;;;;5028331;28;20029;-81
2021/04/11 08:14:25;;;;;;;19.92;10.88;;;16.50;55.40;;;;;;5051423;28;20446;-81
2021/04/11 08:17:28;;;;;;;12.65;10.75;;;17.90;48.50;;;;;;5055339;28;20499;-82
2021/04/11 08:20:21;;;;;;;13.63;10.55;;;19.40;45.20;;;;;;5005710;28;20032;-81
2021/04/11 08:23:05;;;;;;;14.30;10.35;;;20.50;41.70;;;;;;5009675;28;20026;-79
2021/04/11 08:25:38;;;;;;;14.75;10.40;;;20.80;40.50;;;;;;5000717;28;20038;-80
2021/04/11 08:28:03;;;;;;;12.15;10.52;;;20.70;40.80;;;;;;5008432;28;20088;-81
2021/04/11 08:30:48;;;;;;;12.65;10.23;;;20.80;40.50;;;;;;5009918;28;20057;-80
2021/04/11 08:33:37;;;;;;;17.13;11.00;;;18.00;46.30;;;;;;5010892;28;20512;-81
2021/04/11 08:36:20;;;;;;;14.02;10.95;;;18.00;47.30;;;;;;5010872;28;20463;-80
2021/04/11 08:38:52;;;;;;;15.98;10.80;;;15.90;51.50;;;;;;5010690;28;20026;-79
2021/04/11 08:41:26;;;;;;;14.32;10.40;;;18.90;45.80;;;;;;5014638;28;20030;-80
2021/04/11 08:44:04;;;;;;;12.55;9.63;;;19.90;41.20;;;;;;5010535;28;20149;-79
2021/04/11 08:47:06;;;;;;;10.93;9.45;;;19.70;42.10;;;;;;5010919;28;20097;-80
2021/04/11 08:50:09;;;;;;;15.52;10.20;;;21.30;40.10;;;;;;5012006;28;20568;-81
2021/04/11 08:53:04;;;;;;;;;;;21.60;38.30;;;;;;5052774;28;20025;-79
2021/04/11 08:56:19;;;;;;;12.05;8.95;;;20.60;39.90;;;;;;5042918;28;20367;-79
2021/04/11 08:59:04;;;;;;;11.70;8.93;;;21.70;38.10;;;;;;5049331;28;20070;-81
2021/04/11 09:01:48;;;;;;;12.77;9.65;;;19.90;41.60;;;;;;5052276;28;20036;-81
2021/04/11 09:04:22;;;;;;;14.38;9.30;;;21.50;39.70;;;;;;5033570;28;20449;-79
2021/04/11 09:07:14;;;;;;;12.77;9.43;;;21.00;40.10;;;;;;5052121;28;20056;-81
2021/04/11 09:09:53;;;;;;;12.25;9.10;;;21.40;37.90;;;;;;5031565;28;20124;-79
2021/04/11 09:12:30;;;;;;;13.75;9.38;;;18.20;44.50;;;;;;5051215;28;20435;-81
2021/04/11 09:15:15;;;;;;;12.30;9.70;;;18.50;46.70;;;;;;5052145;28;20035;-81
2021/04/11 09:17:50;;;;;;;14.50;9.57;;;17.80;48.60;;;;;;5046625;28;20038;-81
2021/04/11 09:20:40;;;;;;;14.27;8.75;;;17.50;50.30;;;;;;5051840;28;20027;-81
2021/04/11 09:23:23;;;;;;;12.98;10.07;;;17.00;47.70;;;;;;5050656;28;20451;-82
2021/04/11 09:26:11;;;;;;;12.68;8.13;;;16.80;50.30;;;;;;5033605;28;20100;-81
2021/04/11 09:28:59;;;;;;;12.20;7.90;;;18.70;45.20;;;;;;5033965;28;20021;-79
2021/04/11 09:31:40;;;;;;;12.73;8.05;;;21.30;40.60;;;;;;5050211;28;20074;-79
2021/04/11 09:34:11;;;;;;;11.38;8.15;;;22.90;35.20;;;;;;5035188;28;20029;-81
2021/04/11 09:37:24;;;;;;;11.60;8.63;;;22.70;36.00;;;;;;5033910;28;20025;-79
2021/04/11 09:40:09;;;;;;;12.35;9.40;;;22.50;36.10;;;;;;4953658;28;20514;-82
2021/04/11 09:42:46;;;;;;;10.88;8.38;;;19.30;43.60;;;;;;5028408;28;20028;-79
2021/04/11 09:45:42;;;;;;;11.35;7.82;;;21.00;41.30;;;;;;5049456;28;20547;-79
2021/04/11 09:48:48;;;;;;;11.25;7.45;;;23.00;36.70;;;;;;5055761;28;20021;-81
2021/04/11 09:51:24;;;;;;;12.18;6.55;;;22.90;36.00;;;;;;5056064;28;20024;-81
2021/04/11 09:54:28;;;;;;;9.05;6.55;;;22.90;35.60;;;;;;5055783;28;20548;-82
2021/04/11 09:57:18;;;;;;;8.90;6.32;;;21.30;36.70;;;;;;5055964;28;20025;-79
2021/04/11 09:59:55;;;;;;;11.68;7.70;;;18.30;44.20;;;;;;5056138;28;20021;-82
2021/04/11 10:02:34;;;;;;;12.10;7.53;;;16.20;49.60;;;;;;5048744;28;20036;-82
2021/04/11 10:05:05;;;;;;;12.20;7.30;;;15.90;50.20;;;;;;5052969;28;20047;-81
2021/04/11 10:07:49;;;;;;;9.25;6.43;;;18.50;46.90;;;;;;5040379;28;20044;-79
2021/04/11 10:10:28;;;;;;;10.50;6.72;;;21.30;40.90;;;;;;5041163;28;20025;-79
2021/04/11 10:13:27;;;;;;;7.85;6.65;;;22.90;37.10;;;;;;5049227;28;20112;-81
2021/04/11 10:16:01;;;;;;;9.07;6.13;;;23.00;35.40;;;;;;5024799;28;20051;-78
2021/04/11 10:19:00;;;;;;;9.38;6.00;;;23.30;34.50;;;;;;5043927;28;20396;-81
2021/04/11 10:21:52;;;;;;;6.60;5.05;;;23.70;31.80;;;;;;5035267;28;20033;-82
2021/04/11 10:24:36;;;;;;;8.48;6.00;;;20.20;38.40;;;;;;5039298;28;20039;-79
2021/04/11 10:27:09;;;;;;;10.07;5.50;;;19.90;40.50;;;;;;5044988;28;20549;-83
2021/04/11 10:29:36;;;;;;;6.65;5.10;;;18.80;40.10;;;;;;5055153;28;20100;-78
2021/04/11 10:32:34;;;;;;;8.15;5.65;;;17.50;41.80;;;;;;5057963;28;20067;-79
2021/04/11 10:35:22;;;;;;;8.68;5.22;;;17.30;44.10;;;;;;5043339;28;20023;-78
2021/04/11 10:38:01;;;;;;;6.38;4.72;;;16.80;46.00;;;;;;5036837;28;20029;-82
2021/04/11 10:41:04;;;;;;;9.77;5.15;;;16.40;46.60;;;;;;5059628;28;20107;-78
2021/04/11 10:43:41;;;;;;;9.00;5.28;;;16.10;48.30;;;;;;5046205;28;20048;-82
2021/04/11 10:46:13;;;;;;;8.93;5.47;;;15.20;49.50;;;;;;5055116;28;20512;-82
2021/04/11 10:49:02;;;;;;;7.53;4.85;;;14.70;51.20;;;;;;5048199;28;20033;-78
2021/04/11 10:51:40;;;;;;;9.43;5.00;;;15.00;50.60;;;;;;5055184;28;20025;-82
2021/04/11 10:54:18;;;;;;;11.55;4.95;;;15.20;49.90;;;;;;5053531;28;20025;-78
2021/04/11 10:57:04;;;;;;;8.88;5.35;;;14.60;50.00;;;;;;5054990;28;20392;-82
2021/04/11 10:59:40;;;;;;;8.25;5.30;;;14.50;52.00;;;;;;5054900;28;20500;-78
2021/04/11 11:02:17;;;;;;;6.55;4.72;;;14.30;50.90;;;;;;5053435;28;20103;-78
2021/04/11 11:04:51;;;;;;;8.68;5.00;;;14.10;52.40;;;;;;5051715;28;20036;-81
2021/04/11 11:07:36;;;;;;;8.48;5.10;;;14.00;54.00;;;;;;5056392;28;20028;-81
2021/04/11 11:10:43;;;;;;;8.48;5.10;;;13.90;53.80;;;;;;5046722;28;20086;-81
2021/04/11 11:13:27;;;;;;;9.15;5.20;;;14.50;53.50;;;;;;5044649;28;20061;-81
2021/04/11 11:16:24;;;;;;;10.40;5.07;;;15.00;52.00;;;;;;5057821;28;20028;-81
2021/04/11 11:19:24;;;;;;;7.30;5.15;;;14.80;51.80;;;;;;5024761;28;20036;-82
2021/04/11 11:22:18;;;;;;;9.23;4.65;;;15.20;51.20;;;;;;5050980;28;20457;-81
2021/04/11 11:25:10;;;;;;;;;;;15.30;50.60;;;;;;5052534;28;20029;-81
2021/04/11 11:28:19;;;;;;;6.88;4.28;;;15.70;50.40;;;;;;5054166;28;19916;-78
2021/04/11 11:30:47;;;;;;;8.20;4.50;;;17.40;42.50;;;;;;5035535;28;20040;-80
2021/04/11 11:33:34;;;;;;;5.78;4.28;;;17.70;43.70;;;;;;5040714;28;20016;-81
2021/04/11 11:36:37;;;;;;;8.25;4.50;;;17.10;44.50;;;;;;5053161;28;20443;-81
2021/04/11 11:39:07;;;;;;;5.20;3.80;;;17.60;43.90;;;;;;5053577;28;20017;-81
2021/04/11 11:41:35;;;;;;;5.63;3.97;;;16.80;45.70;;;;;;5050939;28;20383;-78
2021/04/11 11:44:26;;;;;;;6.25;4.38;;;17.20;47.70;;;;;;5029505;28;20084;-78
2021/04/11 11:47:29;;;;;;;7.55;4.38;;;17.40;44.70;;;;;;5046281;28;20048;-78
2021/04/11 11:50:07;;;;;;;10.73;4.25;;;17.90;46.70;;;;;;5023564;28;20044;-81
2021/04/11 11:52:42;;;;;;;6.95;4.63;;;16.90;44.80;;;;;;5035463;28;20037;-77
2021/04/11 11:55:19;;;;;;;7.38;4.30;;;16.60;49.00;;;;;;5053561;28;20507;-77
2021/04/11 11:57:57;;;;;;;8.55;4.63;;;16.00;48.00;;;;;;5052565;28;20029;-77
2021/04/11 12:00:35;;;;;;;5.68;4.43;;;14.90;49.40;;;;;;5053275;28;20074;-78
2021/04/11 12:03:29;;;;;;;6.50;4.20;;;15.30;49.00;;;;;;5041111;28;20036;-77
2021/04/11 12:06:26;;;;;;;8.20;4.20;;;15.90;47.40;;;;;;5053069;28;20017;-77
2021/04/11 12:09:13;;;;;;;6.85;3.90;;;16.60;43.50;;;;;;5060888;28;20025;-77
2021/04/11 12:11:50;;;;;;;8.10;4.43;;;16.10;47.20;;;;;;5037843;28;20095;-81
2021/04/11 12:14:24;;;;;;;6.80;4.32;;;15.30;48.30;;;;;;5043552;28;20017;-82
2021/04/11 12:17:15;;;;;;;8.73;3.85;;;14.40;49.90;;;;;;5059156;28;20024;-81
2021/04/11 12:19:54;;;;;;;4.72;3.60;;;14.20;51.30;;;;;;5047869;28;20025;-81
2021/04/11 12:22:31;;;;;;;6.07;3.60;;;14.00;53.00;;;;;;5034685;28;20060;-81
2021/04/11 12:25:16;;;;;;;7.55;3.80;;;14.10;52.00;;;;;;5046354;28;20029;-81
2021/04/11 12:27:42;;;;;;;8.68;3.80;;;14.90;48.90;;;;;;5029445;28;20029;-78
2021/04/11 12:30:13;;;;;;;5.65;3.95;;;15.70;48.70;;;;;;5052016;28;20129;-78
2021/04/11 12:33:03;;;;;;;8.02;3.72;;;16.60;45.30;;;;;;5049952;28;20151;-77
2021/04/11 12:35:51;;;;;;;4.95;3.45;;;16.30;45.80;;;;;;5026805;28;20037;-81
2021/04/11 12:38:22;;;;;;;6.45;3.72;;;15.40;48.00;;;;;;5051177;28;20042;-77
2021/04/11 12:41:00;;;;;;;7.90;3.17;;;15.40;47.00;;;;;;5056633;28;20031;-81
2021/04/11 12:43:49;;;;;;;6.78;3.85;;;15.30;48.10;;;;;;5042788;28;20057;-81
2021/04/11 12:46:38;;;;;;;5.78;3.63;;;14.80;47.20;;;;;;5052959;28;20504;-77
2021/04/11 12:49:13;;;;;;;4.30;3.38;;;14.30;49.10;;;;;;5049391;28;20040;-81
2021/04/11 12:52:12;;;;;;;7.32;3.78;;;14.00;49.70;;;;;;5052879;28;20108;-82
2021/04/11 12:54:45;;;;;;;7.20;3.65;;;13.80;52.70;;;;;;5035529;28;20140;-81
2021/04/11 12:57:28;;;;;;;7.13;4.15;;;13.80;51.60;;;;;;5052605;28;20214;-77
2021/04/11 13:00:00;;;;;;;5.75;3.70;;;14.10;50.80;;;;;;5034883;28;20025;-78
2021/04/11 13:02:38;;;;;;;7.45;3.80;;;15.00;49.40;;;;;;5051989;28;20500;-78
2021/04/11 13:05:16;;;;;;;5.28;3.42;;;16.10;47.60;;;;;;5048951;28;20044;-78
2021/04/11 13:07:52;;;;;;;5.80;2.95;;;16.50;46.10;;;;;;5041553;28;20029;-77
2021/04/11 13:10:38;;;;;;;5.53;3.72;;;16.50;46.50;;;;;;5050981;28;20021;-77
2021/04/11 13:13:07;;;;;;;6.38;3.72;;;15.70;48.00;;;;;;5045989;28;20028;-78
2021/04/11 13:15:38;;;;;;;7.32;3.55;;;15.30;48.90;;;;;;5034813;28;20074;-78
2021/04/11 13:18:14;;;;;;;6.10;3.53;;;14.90;48.80;;;;;;5056912;28;20427;-81
2021/04/11 13:20:59;;;;;;;7.32;4.00;;;14.80;49.80;;;;;;5052793;28;20059;-80
2021/04/11 13:23:33;;;;;;;7.05;3.63;;;14.90;49.90;;;;;;5051579;28;20083;-78
2021/04/11 13:26:17;;;;;;;6.70;3.80;;;14.70;50.60;;;;;;5037018;28;20037;-78
2021/04/11 13:28:48;;;;;;;6.85;4.18;;;14.80;50.50;;;;;;5034189;28;20029;-81
2021/04/11 13:31:21;;;;;;;7.30;4.00;;;15.00;50.80;;;;;;5050462;28;20517;-78
2021/04/11 13:33:46;;;;;;;;;;;15.70;49.20;;;;;;5052514;28;20361;-78
2021/04/11 13:36:29;;;;;;;8.50;3.88;;;16.00;49.60;;;;;;5036664;28;19911;-78
2021/04/11 13:39:19;;;;;;;6.97;3.70;;;16.70;48.60;;;;;;5033751;28;20032;-78
2021/04/11 13:42:19;;;;;;;6.95;4.47;;;16.40;45.80;;;;;;5043396;28;20028;-82